Time;durP1;ratioP1;P1;durP2;ratioP2;P2;SDS_P1;SDS_P2;PMS_P1;PMS_P2;Temp;Humidity;BMP_temperature;BMP_pressure;BME280_temperature;BME280_humidity;BME280_pressure;Samples;Min_cycle;Max_cycle;Signal;HPM_P1;HPM_P2
2024/01/10 00:02:21;;;;;;;15.18;9.73;;;;;;;;;;4984809;28;20042;-67
2024/01/10 00:04:47;;;;;;;14.02;9.93;;;;;;;;;;4986656;28;20046;-67
2024/01/10 00:07:13;;;;;;;12.65;9.75;;;;;;;;;;4992524;28;20112;-67
2024/01/10 00:09:39;;;;;;;12.10;9.15;;;;;;;;;;4991127;28;20051;-67
2024/01/10 00:12:05;;;;;;;12.27;9.00;;;;;;;;;;4985855;28;20065;-67
2024/01/10 00:14:31;;;;;;;13.13;9.30;;;;;;;;;;4985514;28;20112;-67
2024/01/10 00:16:57;;;;;;;14.02;9.82;;;;;;;;;;4984680;28;20042;-67
2024/01/10 00:19:23;;;;;;;12.40;10.00;;;;;;;;;;4985421;28;20053;-67
2024/01/10 00:21:49;;;;;;;14.30;10.23;;;;;;;;;;4985300;28;20042;-67
2024/01/10 00:24:15;;;;;;;14.13;10.30;;;;;;;;;;4990993;28;20050;-67
2024/01/10 00:26:41;;;;;;;15.77;10.82;;;;;;;;;;4984051;28;20479;-67
2024/01/10 00:29:07;;;;;;;13.60;9.88;;;;;;;;;;4988698;28;20434;-67
2024/01/10 00:31:33;;;;;;;15.45;10.73;;;;;;;;;;5021723;28;20127;-67
2024/01/10 00:33:59;;;;;;;14.80;10.57;;;;;;;;;;4989766;28;20494;-67
2024/01/10 00:36:25;;;;;;;15.20;10.45;;;;;;;;;;5017281;28;20046;-67
2024/01/10 00:38:51;;;;;;;12.82;9.98;;;;;;;;;;4993603;28;20065;-67
2024/01/10 00:41:20;;;;;;;14.68;10.32;;;;;;;;;;5019027;28;20088;-67
2024/01/10 00:43:46;;;;;;;13.52;10.45;;;;;;;;;;4973730;28;20081;-67
2024/01/10 00:46:12;;;;;;;14.40;10.65;;;;;;;;;;5003635;28;20482;-67
2024/01/10 00:48:41;;;;;;;14.48;11.10;;;;;;;;;;4996365;28;20050;-67
2024/01/10 00:51:08;;;;;;;17.05;11.40;;;;;;;;;;5001606;28;20050;-68
2024/01/10 00:53:35;;;;;;;16.88;10.95;;;;;;;;;;4997233;28;20073;-67
2024/01/10 00:56:01;;;;;;;16.25;11.00;;;;;;;;;;5012919;28;20050;-67
2024/01/10 00:58:27;;;;;;;16.38;11.15;;;;;;;;;;5000758;28;20053;-67
2024/01/10 01:00:56;;;;;;;15.32;10.20;;;;;;;;;;5000945;28;20060;-67
2024/01/10 01:03:22;;;;;;;14.18;10.55;;;;;;;;;;5007710;28;20624;-67
2024/01/10 01:05:48;;;;;;;15.60;10.38;;;;;;;;;;4984806;28;20080;-67
2024/01/10 01:08:14;;;;;;;17.20;11.80;;;;;;;;;;4985311;28;20081;-67
2024/01/10 01:10:40;;;;;;;15.25;10.70;;;;;;;;;;4985901;28;20113;-66
2024/01/10 01:13:06;;;;;;;16.52;11.40;;;;;;;;;;4982509;28;20054;-67
2024/01/10 01:15:32;;;;;;;13.93;11.38;;;;;;;;;;4987410;28;20065;-67
2024/01/10 01:17:58;;;;;;;14.80;11.52;;;;;;;;;;4990995;28;20066;-67
2024/01/10 01:20:24;;;;;;;16.60;11.73;;;;;;;;;;5015239;28;20046;-67
2024/01/10 01:22:50;;;;;;;16.05;11.25;;;;;;;;;;4981668;28;20042;-67
2024/01/10 01:25:16;;;;;;;18.38;12.10;;;;;;;;;;4992897;28;20438;-67
2024/01/10 01:27:42;;;;;;;18.17;11.95;;;;;;;;;;4986069;28;20046;-67
2024/01/10 01:30:08;;;;;;;18.48;11.85;;;;;;;;;;4986653;28;20042;-66
2024/01/10 01:32:34;;;;;;;16.83;11.88;;;;;;;;;;4985902;28;20072;-67
2024/01/10 01:35:00;;;;;;;15.43;12.05;;;;;;;;;;4992909;28;20524;-67
2024/01/10 01:37:26;;;;;;;15.38;11.55;;;;;;;;;;5015369;28;20105;-67
2024/01/10 01:39:52;;;;;;;18.88;10.98;;;;;;;;;;4986803;28;20050;-67
2024/01/10 01:42:21;;;;;;;17.42;11.35;;;;;;;;;;4991281;28;20061;-67
2024/01/10 01:44:47;;;;;;;17.23;12.32;;;;;;;;;;4985635;28;20046;-67
2024/01/10 01:47:13;;;;;;;15.80;11.85;;;;;;;;;;5005657;28;20100;-67
2024/01/10 01:49:39;;;;;;;16.85;12.32;;;;;;;;;;4996148;28;20057;-67
2024/01/10 01:52:05;;;;;;;18.40;12.63;;;;;;;;;;4997331;28;20042;-66
2024/01/10 01:54:35;;;;;;;16.17;12.48;;;;;;;;;;4990770;28;20081;-67
2024/01/10 01:57:01;;;;;;;20.60;12.80;;;;;;;;;;4987090;28;20125;-66
2024/01/10 01:59:27;;;;;;;18.80;13.27;;;;;;;;;;4988492;28;20049;-67
2024/01/10 02:01:55;;;;;;;17.80;12.73;;;;;;;;;;5004216;28;20064;-67
2024/01/10 02:04:31;;;;;;;19.13;13.52;;;;;;;;;;5007759;28;20042;-66
2024/01/10 02:06:57;;;;;;;20.95;13.82;;;;;;;;;;4999474;28;20056;-67
2024/01/10 02:09:23;;;;;;;18.42;13.68;;;;;;;;;;4993926;28;20054;-67
2024/01/10 02:11:49;;;;;;;19.40;13.35;;;;;;;;;;4985942;28;20563;-66
2024/01/10 02:14:16;;;;;;;18.88;13.32;;;;;;;;;;4982946;28;20051;-67
2024/01/10 02:16:42;;;;;;;18.42;12.95;;;;;;;;;;4982329;28;20046;-67
2024/01/10 02:19:21;;;;;;;19.50;14.00;;;;;;;;;;4982657;28;20034;-66
2024/01/10 02:21:47;;;;;;;21.25;14.50;;;;;;;;;;4987078;28;20057;-67
2024/01/10 02:24:13;;;;;;;22.33;14.50;;;;;;;;;;4986650;28;20046;-67
2024/01/10 02:26:40;;;;;;;19.40;14.35;;;;;;;;;;4991726;28;20391;-67
2024/01/10 02:29:06;;;;;;;21.58;13.93;;;;;;;;;;5014063;28;20096;-67
2024/01/10 02:31:32;;;;;;;20.50;14.57;;;;;;;;;;4984535;28;20049;-67
2024/01/10 02:33:58;;;;;;;20.42;14.52;;;;;;;;;;4984748;28;20069;-67
2024/01/10 02:36:24;;;;;;;24.40;16.23;;;;;;;;;;4987437;28;20070;-67
2024/01/10 02:38:50;;;;;;;21.48;15.05;;;;;;;;;;4991376;28;20041;-67
2024/01/10 02:41:16;;;;;;;21.58;15.30;;;;;;;;;;5027133;28;20052;-67
2024/01/10 02:43:45;;;;;;;24.77;16.50;;;;;;;;;;5019998;28;20569;-66
2024/01/10 02:46:11;;;;;;;20.45;16.02;;;;;;;;;;4997674;28;20052;-67
2024/01/10 02:48:37;;;;;;;24.35;16.55;;;;;;;;;;4990961;28;20057;-66
2024/01/10 02:51:03;;;;;;;24.58;16.90;;;;;;;;;;4977319;28;20414;-67
2024/01/10 02:53:30;;;;;;;22.17;15.68;;;;;;;;;;4990150;28;20043;-66
2024/01/10 02:55:56;;;;;;;23.13;16.67;;;;;;;;;;4985465;28;20046;-67
2024/01/10 02:58:25;;;;;;;24.17;16.67;;;;;;;;;;4999284;28;20129;-66
2024/01/10 03:00:51;;;;;;;25.00;16.90;;;;;;;;;;5001696;28;20074;-67
2024/01/10 03:03:17;;;;;;;25.80;18.55;;;;;;;;;;5005012;28;20084;-66
2024/01/10 03:05:43;;;;;;;24.15;17.02;;;;;;;;;;4992101;28;20050;-67
2024/01/10 03:08:09;;;;;;;26.15;17.40;;;;;;;;;;5021365;28;20048;-66
2024/01/10 03:10:35;;;;;;;27.48;18.33;;;;;;;;;;4987323;28;20125;-66
2024/01/10 03:13:04;;;;;;;25.83;17.80;;;;;;;;;;5023088;28;20402;-67
2024/01/10 03:15:31;;;;;;;25.58;18.33;;;;;;;;;;4985161;28;20047;-67
2024/01/10 03:17:57;;;;;;;26.35;17.48;;;;;;;;;;5018506;28;20054;-67
2024/01/10 03:20:23;;;;;;;24.67;16.45;;;;;;;;;;4989255;28;20074;-67
2024/01/10 03:22:49;;;;;;;25.13;18.20;;;;;;;;;;4989343;28;20380;-66
2024/01/10 03:25:15;;;;;;;25.73;17.35;;;;;;;;;;4992203;28;20132;-66
2024/01/10 03:27:41;;;;;;;28.63;18.15;;;;;;;;;;4991111;28;20058;-66
2024/01/10 03:30:07;;;;;;;26.73;17.75;;;;;;;;;;4983889;28;20049;-67
2024/01/10 03:32:33;;;;;;;26.23;18.30;;;;;;;;;;4985744;28;20074;-66
2024/01/10 03:34:59;;;;;;;26.65;18.52;;;;;;;;;;4994069;28;20074;-66
2024/01/10 03:37:25;;;;;;;28.02;18.75;;;;;;;;;;5017846;28;20173;-67
2024/01/10 03:39:51;;;;;;;28.33;18.80;;;;;;;;;;5021492;28;20077;-67
2024/01/10 03:42:17;;;;;;;27.30;19.27;;;;;;;;;;4988077;28;20038;-66
2024/01/10 03:44:45;;;;;;;26.83;19.02;;;;;;;;;;5021124;28;20046;-66
2024/01/10 03:47:11;;;;;;;26.27;18.55;;;;;;;;;;5019405;28;20100;-66
2024/01/10 03:49:37;;;;;;;28.88;19.23;;;;;;;;;;4994147;28;20494;-66
2024/01/10 03:52:04;;;;;;;25.42;18.27;;;;;;;;;;4994122;28;20043;-66
2024/01/10 03:54:30;;;;;;;27.92;19.48;;;;;;;;;;4992682;28;20054;-67
2024/01/10 03:56:56;;;;;;;29.42;19.20;;;;;;;;;;4972665;28;20356;-66
2024/01/10 03:59:22;;;;;;;26.00;19.10;;;;;;;;;;4991356;28;20057;-66
2024/01/10 04:01:49;;;;;;;26.13;17.33;;;;;;;;;;5004321;28;20049;-66
2024/01/10 04:04:18;;;;;;;27.75;18.27;;;;;;;;;;5001637;28;20100;-66
2024/01/10 04:06:44;;;;;;;28.90;18.98;;;;;;;;;;4980127;28;20080;-66
2024/01/10 04:09:11;;;;;;;26.75;18.35;;;;;;;;;;4996690;28;20513;-66
2024/01/10 04:11:37;;;;;;;25.33;17.95;;;;;;;;;;4991195;28;20091;-66
2024/01/10 04:14:03;;;;;;;28.00;17.95;;;;;;;;;;5001831;28;20050;-66
2024/01/10 04:16:29;;;;;;;25.55;16.30;;;;;;;;;;4996057;28;20038;-66
2024/01/10 04:18:55;;;;;;;23.65;16.70;;;;;;;;;;5017550;28;20058;-66
2024/01/10 04:21:21;;;;;;;24.83;16.05;;;;;;;;;;4986554;28;20053;-66
2024/01/10 04:23:53;;;;;;;23.05;16.70;;;;;;;;;;4986762;28;20046;-66
2024/01/10 04:26:19;;;;;;;23.67;15.45;;;;;;;;;;4987423;28;20037;-66
2024/01/10 04:28:45;;;;;;;23.23;16.42;;;;;;;;;;4987666;28;20432;-66
2024/01/10 04:31:11;;;;;;;23.05;16.33;;;;;;;;;;5017607;28;20085;-66
2024/01/10 04:33:37;;;;;;;23.23;16.10;;;;;;;;;;4985585;28;20478;-66
2024/01/10 04:36:04;;;;;;;25.25;16.10;;;;;;;;;;4989613;28;20047;-66
2024/01/10 04:38:30;;;;;;;23.10;16.40;;;;;;;;;;4985516;28;20057;-66
2024/01/10 04:40:56;;;;;;;24.55;16.35;;;;;;;;;;4985896;28;20241;-66
2024/01/10 04:43:22;;;;;;;23.45;16.15;;;;;;;;;;4987490;28;20121;-66
2024/01/10 04:45:48;;;;;;;22.48;15.77;;;;;;;;;;4982756;28;20121;-66
2024/01/10 04:48:14;;;;;;;21.48;15.30;;;;;;;;;;4989345;28;20046;-66
2024/01/10 04:50:40;;;;;;;22.23;15.20;;;;;;;;;;4983098;28;20058;-66
2024/01/10 04:53:06;;;;;;;21.33;15.02;;;;;;;;;;4983397;28;20100;-66
2024/01/10 04:55:32;;;;;;;25.13;15.35;;;;;;;;;;4987040;28;20042;-66
2024/01/10 04:57:59;;;;;;;20.65;13.52;;;;;;;;;;4985056;28;20498;-66
2024/01/10 05:00:25;;;;;;;22.05;14.52;;;;;;;;;;4987728;28;20081;-66
2024/01/10 05:02:51;;;;;;;22.17;14.18;;;;;;;;;;4989397;28;20125;-66
2024/01/10 05:05:23;;;;;;;24.58;14.35;;;;;;;;;;5017619;28;20193;-66
2024/01/10 05:07:49;;;;;;;20.40;13.80;;;;;;;;;;5016516;28;20057;-66
2024/01/10 05:10:15;;;;;;;20.90;14.00;;;;;;;;;;4985753;28;20054;-66
2024/01/10 05:12:41;;;;;;;22.05;15.20;;;;;;;;;;4983405;28;20062;-66
2024/01/10 05:15:08;;;;;;;22.30;14.00;;;;;;;;;;4986018;28;20038;-66
2024/01/10 05:17:34;;;;;;;19.55;13.32;;;;;;;;;;4983127;28;20050;-66
2024/01/10 05:20:01;;;;;;;21.10;13.90;;;;;;;;;;4987765;28;20047;-66
2024/01/10 05:22:27;;;;;;;17.33;12.90;;;;;;;;;;4983514;28;20764;-66
2024/01/10 05:24:55;;;;;;;20.67;14.25;;;;;;;;;;4984438;28;20046;-66
2024/01/10 05:27:21;;;;;;;21.30;14.20;;;;;;;;;;4987518;28;20045;-66
2024/01/10 05:29:48;;;;;;;21.27;13.52;;;;;;;;;;4986155;28;20061;-66
2024/01/10 05:32:14;;;;;;;18.95;13.70;;;;;;;;;;4984722;28;20046;-66
2024/01/10 05:34:40;;;;;;;20.83;13.38;;;;;;;;;;5016452;28;20061;-66
2024/01/10 05:37:09;;;;;;;20.60;14.25;;;;;;;;;;4985110;28;20049;-66
2024/01/10 05:39:35;;;;;;;21.40;14.48;;;;;;;;;;4987649;28;20046;-66
2024/01/10 05:42:02;;;;;;;21.35;14.77;;;;;;;;;;4983014;28;20045;-66
2024/01/10 05:44:29;;;;;;;21.88;14.73;;;;;;;;;;4982702;28;21112;-66
2024/01/10 05:46:55;;;;;;;23.60;15.35;;;;;;;;;;4992209;28;20096;-66
2024/01/10 05:49:22;;;;;;;22.85;14.00;;;;;;;;;;4991935;28;20084;-67
2024/01/10 05:51:51;;;;;;;20.50;13.85;;;;;;;;;;4981400;28;20042;-66
2024/01/10 05:54:28;;;;;;;19.08;13.90;;;;;;;;;;4992671;28;20054;-66
2024/01/10 05:56:54;;;;;;;21.60;15.23;;;;;;;;;;4979747;28;20081;-66
2024/01/10 05:59:20;;;;;;;24.13;16.13;;;;;;;;;;4973460;28;20495;-66
2024/01/10 06:01:46;;;;;;;25.58;16.17;;;;;;;;;;4986721;28;20054;-67
2024/01/10 06:04:12;;;;;;;27.38;20.35;;;;;;;;;;5028663;28;20049;-66
2024/01/10 06:06:38;;;;;;;25.65;18.75;;;;;;;;;;4986764;28;20055;-66
2024/01/10 06:09:04;;;;;;;21.02;15.77;;;;;;;;;;5001562;28;20070;-66
2024/01/10 06:11:30;;;;;;;24.15;16.95;;;;;;;;;;4985265;28;20053;-66
2024/01/10 06:13:57;;;;;;;25.70;17.33;;;;;;;;;;4975286;28;20051;-66
2024/01/10 06:16:24;;;;;;;32.20;22.30;;;;;;;;;;4993789;28;20589;-66
2024/01/10 06:18:50;;;;;;;25.88;17.98;;;;;;;;;;4990271;28;20046;-66
2024/01/10 06:21:16;;;;;;;26.60;17.67;;;;;;;;;;4988930;28;20042;-66
2024/01/10 06:23:42;;;;;;;23.20;16.70;;;;;;;;;;5017544;28;20398;-66
2024/01/10 06:26:08;;;;;;;26.13;17.55;;;;;;;;;;4985400;28;20092;-66
2024/01/10 06:28:34;;;;;;;27.58;16.98;;;;;;;;;;4986842;28;20413;-66
2024/01/10 06:31:00;;;;;;;26.92;18.60;;;;;;;;;;4986929;28;20050;-66
2024/01/10 06:33:26;;;;;;;24.25;16.80;;;;;;;;;;4992383;28;20149;-66
2024/01/10 06:35:52;;;;;;;24.83;17.60;;;;;;;;;;4989408;28;20516;-66
2024/01/10 06:38:20;;;;;;;26.35;17.15;;;;;;;;;;5018089;28;20050;-67
2024/01/10 06:40:47;;;;;;;26.65;17.92;;;;;;;;;;5020582;28;20058;-66
2024/01/10 06:43:13;;;;;;;29.88;19.05;;;;;;;;;;4988863;28;20050;-66
2024/01/10 06:45:40;;;;;;;25.30;18.08;;;;;;;;;;5017978;28;20133;-66
2024/01/10 06:48:09;;;;;;;27.85;18.48;;;;;;;;;;4991742;28;20055;-66
2024/01/10 06:50:36;;;;;;;26.02;17.92;;;;;;;;;;4992521;28;20102;-66
2024/01/10 06:53:02;;;;;;;25.55;18.58;;;;;;;;;;4986257;28;20130;-66
2024/01/10 06:55:29;;;;;;;27.45;17.98;;;;;;;;;;4987285;28;20589;-66
2024/01/10 06:57:55;;;;;;;23.80;17.05;;;;;;;;;;5018736;28;20050;-66
2024/01/10 07:00:21;;;;;;;25.20;18.20;;;;;;;;;;4987902;28;20487;-66
2024/01/10 07:02:48;;;;;;;27.23;17.55;;;;;;;;;;4988333;28;20042;-66
2024/01/10 07:05:15;;;;;;;26.83;18.35;;;;;;;;;;4989992;28;20076;-66
2024/01/10 07:07:41;;;;;;;26.58;18.48;;;;;;;;;;4986620;28;20056;-67
2024/01/10 07:10:10;;;;;;;26.55;17.50;;;;;;;;;;4983392;28;20073;-66
2024/01/10 07:12:36;;;;;;;25.67;17.40;;;;;;;;;;5020631;28;20061;-66
2024/01/10 07:15:05;;;;;;;29.45;18.85;;;;;;;;;;4985777;28;20042;-66
2024/01/10 07:17:31;;;;;;;26.52;18.38;;;;;;;;;;4988840;28;20085;-66
2024/01/10 07:19:57;;;;;;;27.92;18.38;;;;;;;;;;4985501;28;20054;-66
2024/01/10 07:22:23;;;;;;;27.92;18.40;;;;;;;;;;5011303;28;20065;-66
2024/01/10 07:24:49;;;;;;;28.90;19.02;;;;;;;;;;4987360;28;20486;-66
2024/01/10 07:27:15;;;;;;;28.35;20.50;;;;;;;;;;4984770;28;20035;-66
2024/01/10 07:29:41;;;;;;;29.23;19.58;;;;;;;;;;5020819;28;20453;-66
2024/01/10 07:32:11;;;;;;;30.30;19.75;;;;;;;;;;5015948;28;20047;-66
2024/01/10 07:34:40;;;;;;;27.40;19.25;;;;;;;;;;4983587;28;20042;-66
2024/01/10 07:37:06;;;;;;;30.27;19.92;;;;;;;;;;4992269;28;20046;-66
2024/01/10 07:39:32;;;;;;;34.13;19.85;;;;;;;;;;4989629;28;20058;-66
2024/01/10 07:42:02;;;;;;;26.60;20.10;;;;;;;;;;5022028;28;20042;-66
2024/01/10 07:44:28;;;;;;;29.50;19.23;;;;;;;;;;4986504;28;20049;-67
2024/01/10 07:46:55;;;;;;;31.95;19.88;;;;;;;;;;4990004;28;20473;-66
2024/01/10 07:49:21;;;;;;;28.55;19.50;;;;;;;;;;4991887;28;20129;-66
2024/01/10 07:51:47;;;;;;;27.42;17.75;;;;;;;;;;4990220;28;20126;-66
2024/01/10 07:54:13;;;;;;;24.15;18.25;;;;;;;;;;5006259;28;20052;-66
2024/01/10 07:56:39;;;;;;;28.75;18.88;;;;;;;;;;4991351;28;20192;-66
2024/01/10 07:59:06;;;;;;;26.17;17.85;;;;;;;;;;4984733;28;20180;-67
2024/01/10 08:01:31;;;;;;;24.38;17.40;;;;;;;;;;4986655;28;20054;-66
2024/01/10 08:03:57;;;;;;;25.42;17.20;;;;;;;;;;4998104;28;20058;-66
2024/01/10 08:06:24;;;;;;;27.23;17.52;;;;;;;;;;5003745;28;20521;-67
2024/01/10 08:08:50;;;;;;;23.83;17.38;;;;;;;;;;4993076;28;20411;-66
2024/01/10 08:11:16;;;;;;;22.48;15.85;;;;;;;;;;4987948;28;20054;-66
2024/01/10 08:13:42;;;;;;;27.30;15.85;;;;;;;;;;5007547;28;20048;-66
2024/01/10 08:16:08;;;;;;;23.42;15.88;;;;;;;;;;5009888;28;20073;-66
2024/01/10 08:18:35;;;;;;;25.65;15.98;;;;;;;;;;5000274;28;20509;-66
2024/01/10 08:21:01;;;;;;;24.75;16.05;;;;;;;;;;4995681;28;21614;-66
2024/01/10 08:23:27;;;;;;;26.52;15.57;;;;;;;;;;4995350;28;20097;-66
2024/01/10 08:25:53;;;;;;;22.90;15.60;;;;;;;;;;4992314;28;20073;-66
2024/01/10 08:28:19;;;;;;;22.65;15.32;;;;;;;;;;5005643;28;20413;-66
2024/01/10 08:30:45;;;;;;;23.42;15.85;;;;;;;;;;4990355;28;20054;-66
2024/01/10 08:33:11;;;;;;;21.92;15.10;;;;;;;;;;4981476;28;20039;-66
2024/01/10 08:35:38;;;;;;;24.80;16.35;;;;;;;;;;5033692;28;20050;-66
2024/01/10 08:38:07;;;;;;;22.08;15.05;;;;;;;;;;5006872;28;20053;-66
2024/01/10 08:40:33;;;;;;;23.25;15.25;;;;;;;;;;4998713;28;20053;-66
2024/01/10 08:42:59;;;;;;;26.23;19.35;;;;;;;;;;4989754;28;20055;-66
2024/01/10 08:45:25;;;;;;;23.88;18.35;;;;;;;;;;4990376;28;20143;-66
2024/01/10 08:47:52;;;;;;;22.55;16.08;;;;;;;;;;5019373;28;20462;-66
2024/01/10 08:50:18;;;;;;;23.98;16.45;;;;;;;;;;5016118;28;20066;-66
2024/01/10 08:52:44;;;;;;;26.23;17.42;;;;;;;;;;5030397;28;20072;-66
2024/01/10 08:55:11;;;;;;;26.00;17.50;;;;;;;;;;5005162;28;20046;-66
2024/01/10 08:57:37;;;;;;;35.88;22.77;;;;;;;;;;5006327;28;20386;-66
2024/01/10 09:00:06;;;;;;;36.53;19.88;;;;;;;;;;5002970;28;20370;-66
2024/01/10 09:02:33;;;;;;;57.40;28.20;;;;;;;;;;5010330;28;20115;-68
2024/01/10 09:04:59;;;;;;;56.22;25.25;;;;;;;;;;5000397;28;20042;-67
2024/01/10 09:07:25;;;;;;;35.03;17.30;;;;;;;;;;4987343;28;20074;-66
2024/01/10 09:09:51;;;;;;;103.22;38.90;;;;;;;;;;4985182;28;20043;-66
2024/01/10 09:12:17;;;;;;;63.25;26.83;;;;;;;;;;4984115;28;20042;-66
2024/01/10 09:14:43;;;;;;;56.83;26.17;;;;;;;;;;5015568;28;20053;-67
2024/01/10 09:17:09;;;;;;;33.63;18.50;;;;;;;;;;4986527;28;20039;-78
2024/01/10 09:19:35;;;;;;;33.75;17.48;;;;;;;;;;4984452;28;20043;-69
2024/01/10 09:22:04;;;;;;;23.50;14.50;;;;;;;;;;4986900;28;20209;-68
2024/01/10 09:24:30;;;;;;;18.38;13.60;;;;;;;;;;4988264;28;20418;-68
2024/01/10 09:26:56;;;;;;;19.33;13.13;;;;;;;;;;4984253;28;20065;-68
2024/01/10 09:29:23;;;;;;;21.90;14.73;;;;;;;;;;4984419;28;20082;-68
2024/01/10 09:31:49;;;;;;;24.02;16.25;;;;;;;;;;4983977;28;20132;-69
2024/01/10 09:34:15;;;;;;;29.70;17.10;;;;;;;;;;4983735;28;20081;-69
2024/01/10 09:36:42;;;;;;;25.70;15.88;;;;;;;;;;4985319;28;20108;-68
2024/01/10 09:39:13;;;;;;;22.50;14.75;;;;;;;;;;5017408;28;20085;-68
2024/01/10 09:41:41;;;;;;;19.15;13.55;;;;;;;;;;4983404;28;20117;-68
2024/01/10 09:44:07;;;;;;;22.67;15.32;;;;;;;;;;5017466;28;20479;-69
2024/01/10 09:46:34;;;;;;;25.45;16.13;;;;;;;;;;5014286;28;20043;-69
2024/01/10 09:49:00;;;;;;;42.60;28.77;;;;;;;;;;4983255;28;20064;-69
2024/01/10 09:51:27;;;;;;;27.33;17.85;;;;;;;;;;4984172;28;20420;-69
2024/01/10 09:53:54;;;;;;;22.48;12.82;;;;;;;;;;4984056;28;20050;-68
2024/01/10 09:56:20;;;;;;;27.92;16.00;;;;;;;;;;4982676;28;20078;-69
2024/01/10 09:58:48;;;;;;;23.90;14.25;;;;;;;;;;4984514;28;20395;-69
2024/01/10 10:01:14;;;;;;;52.60;24.83;;;;;;;;;;4987718;28;20446;-68
2024/01/10 10:03:42;;;;;;;24.73;13.50;;;;;;;;;;4988595;28;20065;-69
2024/01/10 10:06:09;;;;;;;30.15;16.70;;;;;;;;;;4990214;28;20446;-68
2024/01/10 10:08:35;;;;;;;41.55;20.67;;;;;;;;;;4986186;28;20157;-69
2024/01/10 10:11:01;;;;;;;36.35;18.63;;;;;;;;;;4986515;28;20439;-69
2024/01/10 10:13:27;;;;;;;22.35;12.73;;;;;;;;;;4987621;28;20059;-69
2024/01/10 10:16:03;;;;;;;32.33;17.55;;;;;;;;;;4988086;28;20088;-69
2024/01/10 10:18:30;;;;;;;29.38;15.57;;;;;;;;;;4987026;28;20161;-69
2024/01/10 10:21:12;;;;;;;19.60;11.80;;;;;;;;;;4990528;28;20047;-69
2024/01/10 10:23:38;;;;;;;30.98;16.27;;;;;;;;;;4989540;28;20110;-69
2024/01/10 10:26:20;;;;;;;24.20;12.98;;;;;;;;;;4988595;28;20057;-69
2024/01/10 10:28:47;;;;;;;31.05;15.25;;;;;;;;;;4985386;28;20124;-69
2024/01/10 10:31:16;;;;;;;23.35;12.13;;;;;;;;;;4989296;28;20125;-69
2024/01/10 10:33:43;;;;;;;18.45;10.75;;;;;;;;;;4986946;28;20478;-69
2024/01/10 10:36:10;;;;;;;19.92;11.55;;;;;;;;;;4990054;28;20601;-69
2024/01/10 10:38:39;;;;;;;52.42;20.92;;;;;;;;;;4987299;28;20054;-69
2024/01/10 10:41:09;;;;;;;69.97;23.90;;;;;;;;;;4989236;28;20054;-69
2024/01/10 10:43:36;;;;;;;43.97;17.48;;;;;;;;;;4989524;28;20314;-69
2024/01/10 10:46:02;;;;;;;54.45;21.65;;;;;;;;;;4990417;28;20046;-69
2024/01/10 10:48:32;;;;;;;43.88;20.15;;;;;;;;;;4987470;28;20060;-69
2024/01/10 10:51:06;;;;;;;21.10;11.38;;;;;;;;;;5019508;28;20049;-69
2024/01/10 10:53:33;;;;;;;25.90;13.98;;;;;;;;;;4990375;28;20081;-69
2024/01/10 10:55:59;;;;;;;18.17;11.18;;;;;;;;;;4986576;28;20050;-69
2024/01/10 10:58:27;;;;;;;16.13;9.43;;;;;;;;;;4985111;28;21668;-69
2024/01/10 11:00:54;;;;;;;16.85;9.63;;;;;;;;;;4987416;28;20050;-69
2024/01/10 11:03:21;;;;;;;20.60;10.95;;;;;;;;;;4988259;28;20046;-69
2024/01/10 11:05:47;;;;;;;17.67;10.80;;;;;;;;;;4986916;28;20042;-67
2024/01/10 11:08:15;;;;;;;17.65;9.93;;;;;;;;;;4987736;28;20506;-67
2024/01/10 11:10:42;;;;;;;17.92;9.82;;;;;;;;;;4987319;28;20046;-67
2024/01/10 11:13:28;;;;;;;23.45;11.95;;;;;;;;;;5018675;28;20133;-67
2024/01/10 11:16:12;;;;;;;21.05;10.38;;;;;;;;;;4985568;28;20061;-67
2024/01/10 11:18:38;;;;;;;23.38;12.35;;;;;;;;;;4986502;28;20084;-67
2024/01/10 11:21:08;;;;;;;17.15;9.93;;;;;;;;;;4986419;28;20039;-67
2024/01/10 11:23:48;;;;;;;15.63;9.27;;;;;;;;;;4984477;28;20058;-67
2024/01/10 11:26:19;;;;;;;16.27;9.25;;;;;;;;;;4986913;28;20410;-67
2024/01/10 11:28:45;;;;;;;17.13;9.93;;;;;;;;;;4984581;28;20522;-67
2024/01/10 11:31:13;;;;;;;19.33;10.13;;;;;;;;;;4988780;28;20053;-67
2024/01/10 11:33:42;;;;;;;19.02;9.75;;;;;;;;;;4988708;28;20065;-66
2024/01/10 11:36:11;;;;;;;20.88;10.93;;;;;;;;;;5017312;28;20487;-67
2024/01/10 11:38:45;;;;;;;14.23;7.72;;;;;;;;;;5019532;28;20050;-67
2024/01/10 11:41:12;;;;;;;14.20;8.13;;;;;;;;;;4987436;28;20523;-67
2024/01/10 11:43:39;;;;;;;13.95;7.90;;;;;;;;;;5018043;28;20046;-67
2024/01/10 11:46:06;;;;;;;14.30;8.68;;;;;;;;;;4984005;28;20063;-67
2024/01/10 11:48:33;;;;;;;26.30;12.82;;;;;;;;;;4987660;28;20038;-67
2024/01/10 11:51:00;;;;;;;17.75;9.43;;;;;;;;;;4988636;28;20046;-68
2024/01/10 11:53:42;;;;;;;18.13;8.57;;;;;;;;;;4985535;28;20510;-67
2024/01/10 11:56:12;;;;;;;15.55;8.20;;;;;;;;;;4990745;28;20047;-67
2024/01/10 11:59:03;;;;;;;23.50;12.85;;;;;;;;;;4986345;28;20046;-67
2024/01/10 12:01:30;;;;;;;23.55;12.40;;;;;;;;;;4987845;28;20056;-67
2024/01/10 12:03:56;;;;;;;17.00;9.23;;;;;;;;;;4983380;28;20117;-66
2024/01/10 12:06:22;;;;;;;22.10;11.85;;;;;;;;;;4984131;28;20112;-67
2024/01/10 12:08:50;;;;;;;16.30;8.25;;;;;;;;;;4984769;28;20511;-67
2024/01/10 12:11:18;;;;;;;24.50;13.73;;;;;;;;;;4985503;28;20085;-66
2024/01/10 12:13:44;;;;;;;21.00;11.18;;;;;;;;;;4982745;28;20039;-67
2024/01/10 12:16:13;;;;;;;14.50;8.13;;;;;;;;;;4984681;28;20050;-67
2024/01/10 12:18:39;;;;;;;20.58;11.38;;;;;;;;;;5014587;28;20054;-67
2024/01/10 12:21:05;;;;;;;25.55;12.35;;;;;;;;;;4987460;28;20054;-67
2024/01/10 12:23:31;;;;;;;36.72;17.55;;;;;;;;;;4985793;28;20057;-67
2024/01/10 12:26:12;;;;;;;44.95;20.98;;;;;;;;;;4985736;28;20461;-67
2024/01/10 12:28:39;;;;;;;21.30;10.25;;;;;;;;;;4985636;28;20447;-67
2024/01/10 12:31:07;;;;;;;31.25;13.32;;;;;;;;;;4983500;28;20318;-67
2024/01/10 12:33:33;;;;;;;20.52;10.55;;;;;;;;;;4985865;28;20050;-67
2024/01/10 12:36:07;;;;;;;18.00;8.88;;;;;;;;;;4980133;28;20035;-67
2024/01/10 12:38:33;;;;;;;17.92;8.90;;;;;;;;;;4982711;28;20050;-67
2024/01/10 12:41:00;;;;;;;17.92;9.93;;;;;;;;;;4984612;28;20054;-67
2024/01/10 12:43:26;;;;;;;17.27;9.52;;;;;;;;;;4986245;28;22236;-67
2024/01/10 12:46:05;;;;;;;15.68;9.10;;;;;;;;;;4983651;28;20054;-67
2024/01/10 12:48:33;;;;;;;16.85;8.50;;;;;;;;;;4982892;28;20043;-67
2024/01/10 12:51:05;;;;;;;16.60;8.85;;;;;;;;;;4984528;28;20057;-67
2024/01/10 12:53:32;;;;;;;15.52;8.27;;;;;;;;;;4987123;28;20486;-66
2024/01/10 12:55:58;;;;;;;14.32;7.68;;;;;;;;;;4992711;28;20038;-66
2024/01/10 12:58:24;;;;;;;13.50;7.57;;;;;;;;;;4986063;28;20478;-66
2024/01/10 13:00:50;;;;;;;16.20;8.20;;;;;;;;;;4989702;28;20049;-66
2024/01/10 13:03:17;;;;;;;14.95;8.73;;;;;;;;;;5018650;28;20086;-67
2024/01/10 13:05:44;;;;;;;12.82;7.45;;;;;;;;;;4990469;28;20038;-67
2024/01/10 13:08:11;;;;;;;13.38;7.75;;;;;;;;;;4996344;28;20066;-67
2024/01/10 13:10:37;;;;;;;13.38;7.07;;;;;;;;;;4987916;28;20454;-67
2024/01/10 13:13:04;;;;;;;13.80;8.15;;;;;;;;;;4995307;28;20038;-67
2024/01/10 13:15:30;;;;;;;11.38;6.93;;;;;;;;;;4979557;28;20061;-67
2024/01/10 13:17:57;;;;;;;11.00;6.93;;;;;;;;;;4988920;28;20057;-67
2024/01/10 13:20:27;;;;;;;22.10;12.38;;;;;;;;;;5004201;28;20792;-67
2024/01/10 13:22:53;;;;;;;44.67;20.75;;;;;;;;;;5020835;28;20054;-67
2024/01/10 13:25:23;;;;;;;72.93;31.27;;;;;;;;;;4991449;28;20386;-68
2024/01/10 13:27:50;;;;;;;25.77;13.65;;;;;;;;;;4983841;28;20845;-68
2024/01/10 13:30:17;;;;;;;27.63;14.35;;;;;;;;;;4981154;28;20062;-67
2024/01/10 13:32:43;;;;;;;26.10;15.10;;;;;;;;;;4992690;28;20054;-67
2024/01/10 13:35:09;;;;;;;16.27;9.50;;;;;;;;;;4988327;28;20386;-68
2024/01/10 13:37:38;;;;;;;19.98;9.80;;;;;;;;;;4985244;28;20047;-67
2024/01/10 13:40:07;;;;;;;17.33;10.93;;;;;;;;;;4991484;28;20038;-68
2024/01/10 13:42:33;;;;;;;19.15;12.82;;;;;;;;;;4984133;28;20122;-68
2024/01/10 13:44:59;;;;;;;19.52;10.45;;;;;;;;;;4983787;28;20051;-68
2024/01/10 13:47:25;;;;;;;37.88;19.23;;;;;;;;;;4980752;28;20062;-68
2024/01/10 13:49:52;;;;;;;54.47;25.00;;;;;;;;;;4987467;28;20053;-68
2024/01/10 13:52:18;;;;;;;27.13;14.43;;;;;;;;;;4984726;28;20483;-68
2024/01/10 13:54:44;;;;;;;34.90;19.85;;;;;;;;;;4984654;28;20078;-68
2024/01/10 13:57:13;;;;;;;29.92;16.83;;;;;;;;;;4984964;28;21069;-68
2024/01/10 13:59:39;;;;;;;16.40;10.48;;;;;;;;;;4983701;28;20085;-67
2024/01/10 14:02:06;;;;;;;15.75;8.55;;;;;;;;;;4983124;28;20054;-67
2024/01/10 14:04:33;;;;;;;35.90;20.58;;;;;;;;;;4983721;28;20049;-68
2024/01/10 14:07:04;;;;;;;17.90;9.77;;;;;;;;;;5015768;28;20082;-67
2024/01/10 14:09:31;;;;;;;14.80;8.05;;;;;;;;;;4985874;28;20050;-67
2024/01/10 14:11:57;;;;;;;14.07;8.68;;;;;;;;;;4984503;28;20063;-67
2024/01/10 14:14:23;;;;;;;14.18;7.93;;;;;;;;;;4983013;28;20050;-67
2024/01/10 14:16:49;;;;;;;16.42;7.88;;;;;;;;;;4987046;28;20057;-67
2024/01/10 14:19:17;;;;;;;14.13;9.00;;;;;;;;;;4986034;28;20505;-68